This is the latest recevied weather packets stored in our database for station/object DC0PP-10. If no packets are shown the sender has not sent any weather packets the latest 1 day(s).
| Time | Temp. | Humidity | Pressure | Rain* | Wind** | Luminosity | Snow |
|---|---|---|---|---|---|---|---|
| 1788602790 | 25° C | 62% | 1024.9 hPa | - | - | - | - |
| 1788601890 | 25° C | 64% | 1024.8 hPa | - | - | - | - |
| 1788600990 | 25° C | 60% | 1024.7 hPa | - | - | - | - |
| 1788600090 | 25° C | 61% | 1024.6 hPa | - | - | - | - |
| 1788599189 | 25° C | 61% | 1024.6 hPa | - | - | - | - |
| 1788598289 | 25° C | 61% | 1024.3 hPa | - | - | - | - |
| 1788597389 | 24.44° C | 61% | 1024.1 hPa | - | - | - | - |
| 1788596489 | 25° C | 61% | 1023.9 hPa | - | - | - | - |
| 1788595589 | 24.44° C | 62% | 1023.9 hPa | - | - | - | - |
| 1788594689 | 24.44° C | 62% | 1023.8 hPa | - | - | - | - |
| 1788593789 | 23.89° C | 64% | 1023.8 hPa | - | - | - | - |
| 1788592888 | 20.56° C | 76% | 1023.8 hPa | - | - | - | - |
| 1788591988 | 23.89° C | 63% | 1023.7 hPa | - | - | - | - |
| 1788591093 | 23.33° C | 66% | 1023.5 hPa | - | - | - | - |
| 1788590192 | 22.78° C | 68% | 1023.5 hPa | - | - | - | - |
| 1788589292 | 22.22° C | 68% | 1023.3 hPa | - | - | - | - |
| 1788588392 | 18.89° C | 81% | 1023.3 hPa | - | - | - | - |
| 1788587492 | 21.67° C | 70% | 1022.8 hPa | - | - | - | - |
| 1788586592 | 20.56° C | 76% | 1022.9 hPa | - | - | - | - |
| 1788585692 | 16.67° C | 90% | 1023.1 hPa | - | - | - | - |
| 1788584791 | 16.67° C | 90% | 1022.7 hPa | - | - | - | - |
| 1788583891 | 17.22° C | 87% | 1022.5 hPa | - | - | - | - |
| 1788582991 | 16.67° C | 93% | 1022.2 hPa | - | - | - | - |
| 1788582091 | 17.78° C | 85% | 1022.3 hPa | - | - | - | - |
| 1788581191 | 16.67° C | 89% | 1022.3 hPa | - | - | - | - |
* Rain since midnight (hover to see other rain measurements)
** Current wind speed in m/s (hover to see current wind gust speed)